Chambersburg, Illinois
Current Conditions -  °F | °C
As of 3:15 PM on Saturday 25 Oct 2014 (Local Time) from KPPQ Reporting Station
Clear Clear  
Wind Chill: 80°   Ceiling: Unl
Heat Index: 80°   Visibility: 10mi
Dew Point: 47°   Wind: 7mph
Humidity: 31%   Direction: 330°NNW
Pressure: 30.02"   Gusts: NA
Location:  39.82°N, 90.66°W
Report Text: KPPQ 252015Z AUTO 33006KT 10SM CLR 27/08 A3002 RMK AO2 T02660081
Loading
Personal Weather Stations






























Interactive Weather Map
Tropical Storm Tracking
New forecast layout! Learn more

10-Day Weather Forecast

Advertisements
Track Severe Weather on mobile